Pagrindinis puslapis
METAR-TAF:

METAR-TAF

Oro uostai :

Krabi, Tailandas

platuma: 08-06-03N, ilguma: 098-59-05E, Aukštis: 25 m

Dabartinis oras

Ataskaita buvo paskelbta 1 valandą ir 5 minutes, ne 20:00 UTC
Vėjas 3 kt iš Šiaurės
Temperatūra 23°C
Drėgmė 100%
Slėgis 1011 hPa
Matomumas 10 km arba daugiau
Mažai debesys ne aukštis 2000 ft

METAR: VTSG 172000Z 36003KT 9999 FEW020 23/23 Q1011 NOSIG

Laikas: 04:05 (21:05 UTC)

Prognozė

Ataskaita buvo paskelbta 4 valandos ir 5 minutes, ne 17:00 UTC
Prognozė galioja nuo 17 metu 18 UTC su 18 metu 18 UTC
Vėjas kt iš Šiaurės
Matomumas 10 km arba daugiau
Mažai debesys ne aukštis 2000 ft
Tapsmas
nuo 17 metu 20 UTC su 17 metu 22 UTC
Matomumas: 5000 m
rūkana
Tapsmas
nuo 18 metu 00 UTC su 18 metu 02 UTC
Vėjas 6 kt iš Vakarų
Matomumas 10 km arba daugiau
Tapsmas
nuo 18 metu 12 UTC su 18 metu 14 UTC
Vėjas kt iš Šiaurės

TAF: VTSG 171700Z 1718/1818 00000KT 9999 FEW020 BECMG 1720/1722 5000 BR BECMG 1800/1802 26006KT 9999 NSW BECMG 1812/1814 00000KT

Orai ataskaitas ir orų prognozės (METAR, TAF).

turimą stotys yra geltonos ir raudonos taškus žemėlapyje.

Perkelti pele per norėdami pamatyti stoties vardą.

Tada spustelėkite, norėdami matyti oro stebėjimo ir prognozės.

Norėdami pakeisti žemėlapį: spustelėkite ant žalios mygtukų su juodo kryžiaus žemyn,; žalią mygtuką su brūkšneliu, jei norite nutolinti; arba žalių rodyklių gretimoms žemėlapius.


METAR-TAF: